Terminal Aerodrome Forecast
Issued by NWS

Home | Current Version | Previous Version | Text Only | Print | Product List | Glossary On
Versions: 1 2 3 4 5 6 7 8 9 10 11 12 13
275
FTUS45 KABQ 242336
TAFSAF
TAF
KSAF 242336Z 2500/2524 24012G19KT P6SM FEW080
     FM250100 20007KT P6SM SKC
     FM250600 06008KT P6SM FEW060
     FM250900 36010G16KT P6SM SCT060
     FM251600 25010KT P6SM SCT080
     FM251900 25010G18KT P6SM SCT080=

USA.gov is the U.S. government's official web portal to all federal, state and local government web resources and services.